Enterprise, Alabama
Current Conditions -  °F | °C
As of 3:48 AM on Sunday 23 Nov 2014 (Local Time) from KSXS Reporting Station
Haze Haze  
Wind Chill: 61°   Ceiling: 300
Heat Index: 61°   Visibility: 4mi
Dew Point: 61°   Wind: 9mph
Humidity: 100%   Direction: 110°ESE
Pressure: 29.93"   Gusts: 16mph
Location:  31.32°N, 85.85°W
Report Text: KSXS 230948Z AUTO 11008G14KT 4SM BR BKN003 OVC005 16/16 A2993 RMK AO2
Loading
Personal Weather Stations






























Interactive Weather Map New forecast layout! Learn more

10-Day Weather Forecast

Advertisements
Track Severe Weather on mobile